createdAt,value
2019-04-21T00:00:19.203Z,49.157715
2019-04-21T00:00:36.013Z,49.053955
2019-04-21T00:01:00.288Z,48.956299
2019-04-21T00:01:14.957Z,49.157715
2019-04-21T00:01:37.566Z,49.67041
2019-04-21T00:01:52.794Z,49.871826
2019-04-21T00:02:09.716Z,49.67041
2019-04-21T00:02:32.814Z,49.462891
2019-04-21T00:02:49.150Z,49.365234
2019-04-21T00:03:13.558Z,49.261475
2019-04-21T00:03:33.135Z,49.365234
2019-04-21T00:03:50.020Z,49.56665
2019-04-21T00:04:11.180Z,49.157715
2019-04-21T00:04:32.936Z,49.67041
2019-04-21T00:04:49.658Z,49.365234
2019-04-21T00:05:19.806Z,49.462891
2019-04-21T00:05:38.029Z,49.56665
2019-04-21T00:05:57.034Z,49.462891
2019-04-21T00:06:15.430Z,49.768066
2019-04-21T00:06:35.077Z,49.975586
2019-04-21T00:06:55.015Z,50.079346
2019-04-21T00:07:13.000Z,49.975586
2019-04-21T00:07:30.918Z,50.079346
2019-04-21T00:07:50.187Z,50.384521
2019-04-21T00:08:17.815Z,50.177002
2019-04-21T00:08:41.253Z,49.871826
2019-04-21T00:08:48.204Z,49.365234
2019-04-21T00:09:10.843Z,49.365234
2019-04-21T00:09:32.436Z,49.462891
2019-04-21T00:09:58.019Z,49.365234
2019-04-21T00:10:05.646Z,49.462891
2019-04-21T00:10:26.764Z,49.157715
2019-04-21T00:10:47.763Z,49.053955
2019-04-21T00:11:02.561Z,49.053955
2019-04-21T00:11:21.809Z,48.956299
2019-04-21T00:11:40.648Z,49.053955
2019-04-21T00:12:01.305Z,49.56665
2019-04-21T00:12:17.773Z,49.157715
2019-04-21T00:12:34.278Z,49.053955
2019-04-21T00:12:51.455Z,49.053955
2019-04-21T00:13:11.828Z,49.053955
2019-04-21T00:13:26.430Z,49.365234
2019-04-21T00:13:46.559Z,49.261475
2019-04-21T00:14:05.521Z,49.157715
2019-04-21T00:14:21.652Z,49.053955
2019-04-21T00:14:43.295Z,49.261475
2019-04-21T00:15:01.614Z,49.56665
2019-04-21T00:15:20.085Z,49.67041
2019-04-21T00:15:36.164Z,50.177002
2019-04-21T00:15:54.822Z,49.871826
2019-04-21T00:16:10.558Z,49.871826
2019-04-21T00:16:34.519Z,49.871826
2019-04-21T00:16:52.790Z,49.768066
2019-04-21T00:17:09.464Z,49.67041
2019-04-21T00:17:25.215Z,49.67041
2019-04-21T00:17:43.479Z,49.79248
2019-04-21T00:18:04.375Z,49.67041
2019-04-21T00:18:19.983Z,49.694824
2019-04-21T00:18:48.394Z,49.591064
2019-04-21T00:19:04.974Z,49.591064
2019-04-21T00:19:21.491Z,49.383545
2019-04-21T00:19:37.509Z,49.182129
2019-04-21T00:20:05.401Z,49.285889
2019-04-21T00:20:23.609Z,49.383545
2019-04-21T00:20:39.577Z,49.383545
2019-04-21T00:20:55.112Z,49.383545
2019-04-21T00:21:18.180Z,49.383545
2019-04-21T00:21:38.415Z,49.383545
2019-04-21T00:21:55.218Z,49.694824
2019-04-21T00:22:19.021Z,49.694824
2019-04-21T00:22:37.518Z,49.383545
2019-04-21T00:22:55.855Z,49.383545
2019-04-21T00:23:21.278Z,49.56665
2019-04-21T00:23:40.990Z,49.89624
2019-04-21T00:24:00.188Z,50
2019-04-21T00:24:15.924Z,49.89624
2019-04-21T00:24:33.510Z,50
2019-04-21T00:24:54.098Z,49.89624
2019-04-21T00:25:13.799Z,49.591064
2019-04-21T00:25:33.576Z,49.591064
2019-04-21T00:25:47.779Z,49.591064
2019-04-21T00:26:07.444Z,49.694824
2019-04-21T00:26:32.870Z,49.487305
2019-04-21T00:26:53.029Z,49.078369
2019-04-21T00:27:09.540Z,49.078369
2019-04-21T00:27:27.890Z,49.182129
2019-04-21T00:27:46.294Z,49.79248
2019-04-21T00:28:06.409Z,50.097656
2019-04-21T00:28:30.174Z,49.79248
2019-04-21T00:28:48.844Z,49.383545
2019-04-21T00:29:08.952Z,49.285889
2019-04-21T00:29:30.070Z,49.487305
2019-04-21T00:29:42.375Z,49.487305
2019-04-21T00:30:03.157Z,49.591064
2019-04-21T00:30:21.206Z,49.694824
2019-04-21T00:30:44.074Z,49.694824
2019-04-21T00:30:59.997Z,50
2019-04-21T00:31:14.914Z,49.694824
2019-04-21T00:31:33.466Z,49.487305
2019-04-21T00:31:51.058Z,50
2019-04-21T00:32:09.868Z,49.89624
2019-04-21T00:32:27.801Z,49.694824
2019-04-21T00:32:44.890Z,49.694824
2019-04-21T00:33:02.841Z,49.285889
2019-04-21T00:33:19.521Z,49.383545
2019-04-21T00:33:35.547Z,49.487305
2019-04-21T00:33:51.897Z,49.79248
2019-04-21T00:34:09.815Z,49.591064
2019-04-21T00:34:28.818Z,49.591064
2019-04-21T00:34:54.086Z,49.694824
2019-04-21T00:35:11.614Z,50.097656
2019-04-21T00:35:27.713Z,50.097656
2019-04-21T00:35:52.510Z,50.201416
2019-04-21T00:36:10.095Z,50.305176
2019-04-21T00:36:27.725Z,50.201416
2019-04-21T00:36:53.307Z,50
2019-04-21T00:37:11.975Z,49.89624
2019-04-21T00:37:30.089Z,49.591064
2019-04-21T00:38:00.146Z,49.487305
2019-04-21T00:38:16.798Z,49.383545
2019-04-21T00:38:37.158Z,49.89624
2019-04-21T00:39:06.483Z,50
2019-04-21T00:39:20.508Z,49.89624
2019-04-21T00:39:43.193Z,50.305176
2019-04-21T00:40:27.029Z,49.79248
2019-04-21T00:40:34.313Z,49.89624
2019-04-21T00:40:53.672Z,50.201416
2019-04-21T00:41:13.076Z,50.408936
2019-04-21T00:41:29.258Z,50.427246
2019-04-21T00:41:48.240Z,50.506592
2019-04-21T00:42:05.030Z,50.32959
2019-04-21T00:42:22.570Z,50.32959
2019-04-21T00:42:42.852Z,50.32959
2019-04-21T00:42:59.783Z,50.12207
2019-04-21T00:43:19.228Z,50.024414
2019-04-21T00:43:37.100Z,50.024414
2019-04-21T00:43:52.954Z,50.22583
2019-04-21T00:44:11.370Z,50.12207
2019-04-21T00:44:29.128Z,50.32959
2019-04-21T00:44:55.466Z,50.738525
2019-04-21T00:45:11.455Z,50.939941
2019-04-21T00:45:27.334Z,51.043701
2019-04-21T00:45:44.292Z,50.939941
2019-04-21T00:46:02.889Z,51.043701
2019-04-21T00:46:26.201Z,51.245117
2019-04-21T00:46:43.507Z,50.939941
2019-04-21T00:47:01.685Z,51.043701
2019-04-21T00:47:30.156Z,51.245117
2019-04-21T00:47:45.445Z,51.452637
2019-04-21T00:48:09.609Z,51.452637
2019-04-21T00:48:28.756Z,51.348877
2019-04-21T00:48:47.400Z,51.147461
2019-04-21T00:49:01.181Z,51.348877
2019-04-21T00:49:19.249Z,51.348877
2019-04-21T00:49:35.357Z,51.269531
2019-04-21T00:50:04.895Z,51.043701
2019-04-21T00:50:17.554Z,50.836182
2019-04-21T00:50:50.804Z,50.939941
2019-04-21T00:51:33.016Z,51.043701
2019-04-21T00:51:45.459Z,50.939941
2019-04-21T00:52:01.816Z,51.068115
2019-04-21T00:52:27.996Z,51.678467
2019-04-21T00:52:44.991Z,51.782227
2019-04-21T00:53:04.484Z,51.477051
2019-04-21T00:53:10.173Z,51.269531
2019-04-21T00:53:35.228Z,51.678467
2019-04-21T00:53:57.731Z,51.574707
2019-04-21T00:54:24.393Z,51.678467
2019-04-21T00:54:32.608Z,51.782227
2019-04-21T00:54:56.786Z,52.087402
2019-04-21T00:55:13.849Z,51.983643
2019-04-21T00:55:48.413Z,51.885986
2019-04-21T00:56:08.318Z,52.087402
2019-04-21T00:56:21.089Z,51.983643
2019-04-21T00:56:39.312Z,52.087402
2019-04-21T00:57:02.471Z,52.191162
2019-04-21T00:57:24.001Z,52.392578
2019-04-21T00:57:44.663Z,52.392578
2019-04-21T00:58:01.837Z,52.191162
2019-04-21T00:58:22.306Z,52.600098
2019-04-21T00:58:52.984Z,52.496338
2019-04-21T00:58:59.114Z,51.782227
2019-04-21T00:59:13.466Z,51.678467
2019-04-21T00:59:31.448Z,51.678467
2019-04-21T00:59:49.853Z,52.087402
2019-04-21T01:00:11.485Z,52.087402
2019-04-21T01:00:26.868Z,51.983643
2019-04-21T01:00:50.944Z,52.087402
2019-04-21T01:01:06.978Z,51.983643
2019-04-21T01:01:24.687Z,52.294922
2019-04-21T01:01:43.374Z,52.294922
2019-04-21T01:01:59.568Z,52.087402
2019-04-21T01:02:21.832Z,51.885986
2019-04-21T01:03:00.744Z,51.574707
2019-04-21T01:03:19.998Z,51.885986
2019-04-21T01:03:37.085Z,52.087402
2019-04-21T01:04:15.121Z,51.782227
2019-04-21T01:04:36.692Z,51.574707
2019-04-21T01:04:59.639Z,51.373291
2019-04-21T01:05:16.323Z,51.373291
2019-04-21T01:05:35.063Z,51.477051
2019-04-21T01:06:09.590Z,51.373291
2019-04-21T01:06:15.864Z,51.373291
2019-04-21T01:06:35.007Z,51.269531
2019-04-21T01:07:07.032Z,51.269531
2019-04-21T01:07:26.412Z,50.860596
2019-04-21T01:07:45.321Z,50.55542
2019-04-21T01:08:04.530Z,50.55542
2019-04-21T01:08:24.915Z,50.860596
2019-04-21T01:08:40.882Z,50.65918
2019-04-21T01:09:02.504Z,51.068115
2019-04-21T01:09:19.293Z,51.165771
2019-04-21T01:09:36.520Z,51.373291
2019-04-21T01:09:52.402Z,51.269531
2019-04-21T01:10:08.998Z,51.373291
2019-04-21T01:10:28.338Z,51.678467
2019-04-21T01:10:49.794Z,51.678467
2019-04-21T01:11:17.716Z,51.782227
2019-04-21T01:11:36.556Z,51.477051
2019-04-21T01:11:54.866Z,51.068115
2019-04-21T01:12:12.097Z,51.165771
2019-04-21T01:12:32.946Z,51.477051
2019-04-21T01:12:54.489Z,51.782227
2019-04-21T01:13:15.766Z,51.782227
2019-04-21T01:13:31.929Z,51.269531
2019-04-21T01:13:51.521Z,51.373291
2019-04-21T01:14:11.591Z,51.574707
2019-04-21T01:14:34.214Z,51.165771
2019-04-21T01:14:40.553Z,50.756836
2019-04-21T01:15:08.984Z,50.88501
2019-04-21T01:15:30.427Z,51.190186
2019-04-21T01:15:48.560Z,51.190186
2019-04-21T01:16:05.393Z,51.190186
2019-04-21T01:16:26.870Z,51.293945
2019-04-21T01:16:45.163Z,51.397705
2019-04-21T01:17:03.618Z,51.501465
2019-04-21T01:17:21.536Z,50.88501
2019-04-21T01:17:40.320Z,51.092529
2019-04-21T01:17:55.838Z,51.501465
2019-04-21T01:18:16.115Z,51.599121
2019-04-21T01:18:36.716Z,51.599121
2019-04-21T01:18:54.320Z,51.501465
2019-04-21T01:19:10.360Z,51.806641
2019-04-21T01:19:24.928Z,51.9104
2019-04-21T01:19:43.716Z,51.702881
2019-04-21T01:20:06.158Z,51.501465
2019-04-21T01:23:01.048Z,51.702881
2019-04-21T01:23:20.028Z,51.190186
2019-04-21T01:23:38.952Z,51.092529
2019-04-21T01:24:05.361Z,50.78125
2019-04-21T01:24:21.513Z,50.98877
2019-04-21T01:24:39.969Z,51.293945
2019-04-21T01:25:04.203Z,50.88501
2019-04-21T01:25:22.487Z,50.98877
2019-04-21T01:25:38.069Z,51.293945
2019-04-21T01:26:06.170Z,51.501465
2019-04-21T01:26:22.453Z,51.397705
2019-04-21T01:26:41.418Z,51.806641
2019-04-21T01:26:56.655Z,51.806641
2019-04-21T01:27:18.347Z,51.806641
2019-04-21T01:27:45.514Z,51.806641
2019-04-21T01:27:58.621Z,51.806641
2019-04-21T01:28:18.494Z,51.806641
2019-04-21T01:28:39.674Z,51.806641
2019-04-21T01:28:59.661Z,51.702881
2019-04-21T01:29:15.337Z,52.008057
2019-04-21T01:29:41.272Z,52.008057
2019-04-21T01:29:59.578Z,51.9104
2019-04-21T01:30:16.162Z,51.599121
2019-04-21T01:30:34.029Z,51.702881
2019-04-21T01:30:56.662Z,51.702881
2019-04-21T01:31:13.013Z,51.397705
2019-04-21T01:31:28.059Z,51.702881
2019-04-21T01:31:47.883Z,51.702881
2019-04-21T01:32:17.613Z,51.397705
2019-04-21T01:32:34.172Z,51.397705
2019-04-21T01:32:52.702Z,51.397705
2019-04-21T01:33:12.164Z,51.190186
2019-04-21T01:33:32.215Z,51.397705
2019-04-21T01:33:50.230Z,50.98877
2019-04-21T01:34:08.170Z,51.092529
2019-04-21T01:34:20.332Z,51.293945
2019-04-21T01:34:44.958Z,51.2146
2019-04-21T01:35:02.217Z,51.318359
2019-04-21T01:35:20.552Z,51.2146
2019-04-21T01:35:39.224Z,51.092529
2019-04-21T01:35:57.811Z,51.190186
2019-04-21T01:36:13.882Z,51.397705
2019-04-21T01:36:34.495Z,51.599121
2019-04-21T01:36:53.982Z,51.599121
2019-04-21T01:37:12.647Z,51.9104
2019-04-21T01:37:39.749Z,52.111816
2019-04-21T01:37:55.567Z,52.13623
2019-04-21T01:38:13.692Z,51.831055
2019-04-21T01:38:34.073Z,51.623535
2019-04-21T01:38:53.559Z,51.318359
2019-04-21T01:39:12.960Z,51.422119
2019-04-21T01:39:34.031Z,51.318359
2019-04-21T01:39:53.047Z,51.2146
2019-04-21T01:40:08.322Z,51.013184
2019-04-21T01:40:28.637Z,51.116943
2019-04-21T01:40:44.509Z,51.623535
2019-04-21T01:41:06.814Z,51.727295
2019-04-21T01:41:25.282Z,51.525879
2019-04-21T01:41:44.616Z,51.623535
2019-04-21T01:42:03.023Z,51.727295
2019-04-21T01:42:20.869Z,51.525879
2019-04-21T01:42:37.982Z,51.318359
2019-04-21T01:42:55.484Z,51.318359
2019-04-21T01:43:13.237Z,51.422119
2019-04-21T01:43:33.156Z,51.727295
2019-04-21T01:43:54.372Z,51.623535
2019-04-21T01:44:12.000Z,51.727295
2019-04-21T01:44:35.896Z,51.525879
2019-04-21T01:44:52.120Z,51.422119
2019-04-21T01:45:09.158Z,51.2146
2019-04-21T01:45:26.129Z,51.116943
2019-04-21T01:45:48.535Z,51.116943
2019-04-21T01:46:05.273Z,51.318359
2019-04-21T01:46:25.504Z,51.525879
2019-04-21T01:46:39.089Z,51.727295
2019-04-21T01:46:58.076Z,51.934814
2019-04-21T01:47:20.008Z,51.727295
2019-04-21T01:47:40.366Z,51.318359
2019-04-21T01:48:00.946Z,51.318359
2019-04-21T01:48:14.714Z,51.623535
2019-04-21T01:48:34.027Z,51.934814
2019-04-21T01:48:52.405Z,51.934814
2019-04-21T01:49:11.315Z,52.13623
2019-04-21T01:49:29.384Z,52.13623
2019-04-21T01:49:47.100Z,52.441406
2019-04-21T01:50:04.269Z,52.441406
2019-04-21T01:50:28.788Z,52.34375
2019-04-21T01:50:50.895Z,52.34375
2019-04-21T01:51:08.373Z,51.727295
2019-04-21T01:51:25.871Z,51.623535
2019-04-21T01:52:02.418Z,51.934814
2019-04-21T01:52:17.438Z,52.13623
2019-04-21T01:52:38.098Z,52.032471
2019-04-21T01:52:49.715Z,52.13623
2019-04-21T01:53:10.729Z,52.34375
2019-04-21T01:53:30.446Z,52.648926
2019-04-21T01:53:48.007Z,52.752686
2019-04-21T01:54:03.136Z,52.954102
2019-04-21T01:54:21.592Z,53.161621
2019-04-21T01:54:40.213Z,52.850342
2019-04-21T01:55:00.028Z,52.850342
2019-04-21T01:55:17.553Z,52.752686
2019-04-21T01:55:35.424Z,52.752686
2019-04-21T01:56:00.188Z,52.874756
2019-04-21T01:56:16.688Z,52.978516
2019-04-21T01:56:33.721Z,52.874756
2019-04-21T01:56:55.029Z,52.978516
2019-04-21T01:57:12.196Z,52.978516
2019-04-21T01:57:29.257Z,52.978516
2019-04-21T01:57:49.157Z,52.874756
2019-04-21T01:58:05.783Z,52.874756
2019-04-21T01:58:22.907Z,52.978516
2019-04-21T01:58:38.669Z,52.978516
2019-04-21T01:58:56.085Z,52.368164
2019-04-21T01:59:15.453Z,52.7771
2019-04-21T01:59:40.128Z,52.7771
2019-04-21T01:59:56.917Z,52.56958
2019-04-21T02:00:16.177Z,52.7771
2019-04-21T02:00:37.733Z,52.67334
2019-04-21T02:00:56.350Z,52.7771
2019-04-21T02:01:23.837Z,52.7771
2019-04-21T02:01:38.413Z,52.67334
2019-04-21T02:02:00.017Z,52.978516
2019-04-21T02:02:16.896Z,53.186035
2019-04-21T02:02:43.118Z,53.082275
2019-04-21T02:02:58.875Z,53.082275
2019-04-21T02:03:33.840Z,52.7771
2019-04-21T02:04:04.095Z,52.874756
2019-04-21T02:04:13.647Z,52.874756
2019-04-21T02:04:29.065Z,53.186035
2019-04-21T02:04:55.617Z,53.594971
2019-04-21T02:05:16.814Z,53.594971
2019-04-21T02:05:36.201Z,53.491211
2019-04-21T02:05:50.883Z,53.594971
2019-04-21T02:06:10.709Z,53.491211
2019-04-21T02:06:26.930Z,53.594971
2019-04-21T02:06:43.945Z,53.900146
2019-04-21T02:07:02.627Z,54.003906
2019-04-21T02:07:20.167Z,53.692627
2019-04-21T02:07:38.781Z,53.491211
2019-04-21T02:08:00.618Z,53.283691
2019-04-21T02:08:14.627Z,53.692627
2019-04-21T02:08:35.839Z,54.101562
2019-04-21T02:08:57.578Z,54.309082
2019-04-21T02:09:14.531Z,54.412842
2019-04-21T02:09:37.084Z,54.101562
2019-04-21T02:09:56.649Z,54.003906
2019-04-21T02:10:17.457Z,54.309082
2019-04-21T02:10:39.402Z,54.333496
2019-04-21T02:10:54.402Z,54.333496
2019-04-21T02:11:29.809Z,54.541016
2019-04-21T02:11:43.035Z,54.742432
2019-04-21T02:12:08.513Z,54.541016
2019-04-21T02:12:25.097Z,54.846191
2019-04-21T02:12:44.205Z,54.846191
2019-04-21T02:13:03.061Z,54.742432
2019-04-21T02:13:21.229Z,54.541016
2019-04-21T02:13:46.513Z,54.437256
2019-04-21T02:14:22.348Z,54.638672
2019-04-21T02:14:22.351Z,54.437256
2019-04-21T02:14:45.281Z,54.229736
2019-04-21T02:15:04.366Z,53.820801
2019-04-21T02:15:35.846Z,53.924561
2019-04-21T02:15:55.319Z,53.717041
2019-04-21T02:16:00.442Z,53.717041
2019-04-21T02:16:16.767Z,53.924561
2019-04-21T02:16:33.869Z,53.515625
2019-04-21T02:16:51.878Z,53.924561
2019-04-21T02:17:27.568Z,54.229736
2019-04-21T02:17:53.448Z,54.02832
2019-04-21T02:18:11.741Z,54.13208
2019-04-21T02:18:27.113Z,54.02832
2019-04-21T02:18:43.405Z,53.717041
2019-04-21T02:19:04.220Z,53.924561
2019-04-21T02:19:23.080Z,53.820801
2019-04-21T02:19:40.893Z,53.924561
2019-04-21T02:19:54.986Z,53.619385
2019-04-21T02:20:15.117Z,53.820801
2019-04-21T02:20:31.597Z,53.820801
2019-04-21T02:20:48.774Z,53.619385
2019-04-21T02:21:15.296Z,53.717041
2019-04-21T02:21:33.890Z,53.717041
2019-04-21T02:21:51.268Z,53.619385
2019-04-21T02:22:18.975Z,53.619385
2019-04-21T02:22:45.792Z,53.411865
2019-04-21T02:23:09.794Z,53.515625
2019-04-21T02:23:37.657Z,53.820801
2019-04-21T02:24:11.253Z,54.02832
2019-04-21T02:24:20.262Z,53.619385
2019-04-21T02:24:34.714Z,53.515625
2019-04-21T02:25:08.108Z,53.308105
2019-04-21T02:25:25.663Z,53.308105
2019-04-21T02:25:44.042Z,53.411865
2019-04-21T02:26:03.108Z,53.234863
2019-04-21T02:26:26.469Z,53.131104
2019-04-21T02:26:39.650Z,53.234863
2019-04-21T02:26:58.992Z,53.234863
2019-04-21T02:27:23.262Z,53.234863
2019-04-21T02:27:42.521Z,53.436279
2019-04-21T02:28:03.032Z,53.540039
2019-04-21T02:28:19.149Z,54.052734
2019-04-21T02:28:42.211Z,54.25415
2019-04-21T02:28:59.924Z,53.948975
2019-04-21T02:29:20.423Z,53.948975
2019-04-21T02:29:32.609Z,54.25415
2019-04-21T02:29:54.842Z,54.35791
2019-04-21T02:30:18.079Z,54.156494
2019-04-21T02:30:45.242Z,53.845215
2019-04-21T02:31:04.636Z,53.845215
2019-04-21T02:31:35.698Z,53.540039
2019-04-21T02:32:13.767Z,53.845215
2019-04-21T02:32:35.112Z,54.25415
2019-04-21T02:33:25.552Z,54.56543
2019-04-21T02:33:35.922Z,54.766846
2019-04-21T02:33:54.068Z,54.870605
2019-04-21T02:34:04.208Z,54.669189
2019-04-21T02:34:31.975Z,54.56543
2019-04-21T02:34:48.555Z,54.46167
2019-04-21T02:35:12.176Z,54.156494
2019-04-21T02:35:49.324Z,54.35791
2019-04-21T02:36:28.874Z,54.766846
2019-04-21T02:37:16.934Z,54.46167
2019-04-21T02:37:44.135Z,53.845215
2019-04-21T02:38:16.215Z,54.46167
2019-04-21T02:38:36.093Z,54.25415
2019-04-21T02:39:05.957Z,54.56543
2019-04-21T02:39:37.092Z,54.25415
2019-04-21T02:39:56.417Z,53.948975
2019-04-21T02:40:29.241Z,53.845215
2019-04-21T02:41:21.114Z,53.643799
2019-04-21T02:41:30.489Z,53.540039
2019-04-21T02:42:18.029Z,53.540039
2019-04-21T02:42:45.225Z,54.052734
2019-04-21T02:43:32.677Z,54.156494
2019-04-21T02:43:59.928Z,54.052734
2019-04-21T02:44:15.603Z,53.948975
2019-04-21T02:44:42.663Z,54.052734
2019-04-21T02:44:59.624Z,54.25415
2019-04-21T02:45:16.127Z,53.845215
2019-04-21T02:45:37.581Z,53.643799
2019-04-21T02:45:55.705Z,53.668213
2019-04-21T02:46:12.241Z,53.436279
2019-04-21T02:46:52.784Z,53.747559
2019-04-21T02:47:03.381Z,53.643799
2019-04-21T02:47:36.516Z,54.052734
2019-04-21T02:48:08.368Z,54.052734
2019-04-21T02:48:27.618Z,54.180908
2019-04-21T02:48:43.127Z,54.077148
2019-04-21T02:49:03.820Z,53.564453
2019-04-21T02:49:44.699Z,53.869629
2019-04-21T02:50:35.949Z,54.077148
2019-04-21T02:50:49.377Z,54.382324
2019-04-21T02:51:19.119Z,54.79126
2019-04-21T02:52:00.925Z,54.486084
2019-04-21T02:52:19.822Z,54.382324
2019-04-21T02:52:35.242Z,54.693604
2019-04-21T02:52:52.115Z,54.79126
2019-04-21T02:53:09.279Z,54.284668
2019-04-21T02:53:53.302Z,54.382324
2019-04-21T02:54:11.632Z,54.589844
2019-04-21T02:55:05.739Z,54.79126
2019-04-21T02:55:21.781Z,54.79126
2019-04-21T02:56:24.451Z,54.693604
2019-04-21T02:56:41.828Z,54.486084
2019-04-21T02:57:08.386Z,54.589844
2019-04-21T02:57:15.345Z,54.693604
2019-04-21T02:57:41.035Z,54.693604
2019-04-21T02:58:24.479Z,54.180908
2019-04-21T02:59:14.657Z,54.589844
2019-04-21T02:59:32.830Z,54.486084
2019-04-21T02:59:58.082Z,54.284668
2019-04-21T03:00:13.463Z,54.486084
2019-04-21T03:00:42.425Z,54.79126
2019-04-21T03:01:12.183Z,54.89502
2019-04-21T03:01:30.913Z,54.79126
2019-04-21T03:01:48.253Z,54.79126
2019-04-21T03:02:03.282Z,54.89502
2019-04-21T03:02:46.615Z,54.89502
2019-04-21T03:03:19.492Z,54.89502
2019-04-21T03:03:36.084Z,54.998779
2019-04-21T03:04:18.293Z,55.407715
2019-04-21T03:04:41.962Z,55.206299
2019-04-21T03:04:51.636Z,54.89502
2019-04-21T03:05:35.928Z,54.79126
2019-04-21T03:05:50.296Z,54.89502
2019-04-21T03:06:05.701Z,54.693604
2019-04-21T03:06:28.717Z,54.180908
2019-04-21T03:06:50.074Z,53.973389
2019-04-21T03:07:40.544Z,54.284668
2019-04-21T03:07:47.521Z,54.382324
2019-04-21T03:08:02.656Z,54.693604
2019-04-21T03:08:25.101Z,55.102539
2019-04-21T03:09:08.526Z,55.102539
2019-04-21T03:09:23.829Z,54.89502
2019-04-21T03:09:35.446Z,54.998779
2019-04-21T03:09:49.235Z,55.303955
2019-04-21T03:10:17.297Z,55.511475
2019-04-21T03:10:43.020Z,55.511475
2019-04-21T03:10:59.005Z,55.718994
2019-04-21T03:11:23.733Z,55.743408
2019-04-21T03:11:55.804Z,55.639648
2019-04-21T03:12:10.662Z,55.334473
2019-04-21T03:12:28.445Z,55.230713
2019-04-21T03:12:50.579Z,55.230713
2019-04-21T03:13:13.596Z,55.639648
2019-04-21T03:13:28.902Z,55.944824
2019-04-21T03:13:46.353Z,55.944824
2019-04-21T03:14:26.756Z,56.048584
2019-04-21T03:14:45.891Z,56.256104
2019-04-21T03:15:03.458Z,56.152344
2019-04-21T03:15:20.622Z,55.944824
2019-04-21T03:15:46.862Z,55.743408
2019-04-21T03:16:06.595Z,55.334473
2019-04-21T03:16:46.766Z,55.944824
2019-04-21T03:17:13.638Z,55.847168
2019-04-21T03:17:56.684Z,55.639648
2019-04-21T03:18:12.294Z,55.944824
2019-04-21T03:18:32.347Z,56.561279
2019-04-21T03:18:47.992Z,56.152344
2019-04-21T03:19:14.615Z,55.639648
2019-04-21T03:19:35.666Z,55.230713
2019-04-21T03:19:49.860Z,55.023193
2019-04-21T03:20:06.695Z,55.230713
2019-04-21T03:20:23.192Z,55.432129
2019-04-21T03:20:41.883Z,55.535889
2019-04-21T03:21:20.276Z,55.126953
2019-04-21T03:21:36.473Z,55.432129
2019-04-21T03:22:04.848Z,55.944824
2019-04-21T03:22:29.688Z,56.048584
2019-04-21T03:22:59.606Z,55.944824
2019-04-21T03:23:18.666Z,55.847168
2019-04-21T03:24:03.620Z,55.743408
2019-04-21T03:24:28.792Z,55.944824
2019-04-21T03:24:39.539Z,55.847168
2019-04-21T03:25:24.864Z,56.152344
2019-04-21T03:25:40.760Z,56.152344
2019-04-21T03:25:49.291Z,56.45752
2019-04-21T03:26:09.970Z,56.35376
2019-04-21T03:26:58.804Z,56.152344
2019-04-21T03:27:16.923Z,55.944824
2019-04-21T03:27:48.616Z,55.871582
2019-04-21T03:28:22.015Z,55.560303
2019-04-21T03:28:42.008Z,55.944824
2019-04-21T03:29:19.377Z,56.256104
2019-04-21T03:29:34.632Z,56.488037
2019-04-21T03:31:49.103Z,57.098389
2019-04-21T03:32:13.539Z,57.305908
2019-04-21T03:32:30.444Z,57.098389
2019-04-21T03:33:40.245Z,56.689453
2019-04-21T03:34:14.571Z,56.280518
2019-04-21T03:34:38.068Z,55.560303
2019-04-21T03:36:46.981Z,56.585693
2019-04-21T03:37:15.553Z,56.280518
2019-04-21T03:37:30.514Z,55.871582
2019-04-21T03:37:52.138Z,55.767822
2019-04-21T03:38:14.570Z,55.767822
2019-04-21T03:38:26.673Z,55.975342
2019-04-21T03:38:45.057Z,55.975342
2019-04-21T03:39:17.714Z,55.871582
2019-04-21T03:39:44.727Z,56.176758
2019-04-21T03:39:58.995Z,56.384277
2019-04-21T03:40:31.972Z,56.793213
2019-04-21T03:40:57.041Z,56.896973
2019-04-21T03:41:37.529Z,56.585693
2019-04-21T03:42:06.807Z,56.585693
2019-04-21T03:42:38.319Z,55.975342
2019-04-21T03:43:11.930Z,56.384277
2019-04-21T03:43:49.872Z,56.585693
2019-04-21T03:44:14.202Z,56.896973
2019-04-21T03:44:29.914Z,56.793213
2019-04-21T03:44:44.737Z,56.616211
2019-04-21T03:45:30.097Z,56.408691
2019-04-21T03:45:42.048Z,56.713867
2019-04-21T03:45:57.972Z,56.817627
2019-04-21T03:46:22.836Z,57.232666
2019-04-21T03:46:55.353Z,56.921387
2019-04-21T03:47:22.592Z,56.616211
2019-04-21T03:47:34.357Z,57.025146
2019-04-21T03:48:16.595Z,57.434082
2019-04-21T03:48:35.250Z,57.232666
2019-04-21T03:49:18.947Z,56.921387
2019-04-21T03:49:38.838Z,56.713867
2019-04-21T03:49:54.020Z,57.025146
2019-04-21T03:50:10.853Z,57.537842
2019-04-21T03:50:38.626Z,57.843018
2019-04-21T03:51:11.883Z,58.050537
2019-04-21T03:51:25.421Z,57.946777
2019-04-21T03:51:45.538Z,57.745361
2019-04-21T03:52:19.119Z,57.330322
2019-04-21T03:52:43.846Z,57.946777
2019-04-21T03:53:36.243Z,58.355713
2019-04-21T03:53:36.280Z,58.258057
2019-04-21T03:54:15.275Z,58.666992
2019-04-21T03:54:53.020Z,58.459473
2019-04-21T03:54:53.020Z,58.666992
2019-04-21T03:55:40.805Z,58.050537
2019-04-21T03:55:52.738Z,58.154297
2019-04-21T03:56:50.739Z,58.258057
2019-04-21T03:57:17.150Z,58.563232
2019-04-21T03:57:45.711Z,58.770752
2019-04-21T03:58:34.400Z,59.283447
2019-04-21T03:59:15.864Z,58.972168
2019-04-21T03:59:15.881Z,58.563232
2019-04-21T03:59:44.880Z,58.154297
2019-04-21T04:00:05.952Z,58.355713
2019-04-21T04:00:33.430Z,58.459473
2019-04-21T04:00:49.395Z,58.666992
2019-04-21T04:01:21.389Z,58.666992
2019-04-21T04:01:32.065Z,58.972168
2019-04-21T04:01:57.353Z,59.179688
2019-04-21T04:02:22.632Z,59.075928
2019-04-21T04:02:41.152Z,58.868408
2019-04-21T04:03:07.173Z,58.770752
2019-04-21T04:03:41.576Z,58.355713
2019-04-21T04:04:19.388Z,58.050537
2019-04-21T04:04:27.626Z,58.258057
2019-04-21T04:04:43.860Z,58.459473
2019-04-21T04:05:10.725Z,58.666992
2019-04-21T04:05:34.272Z,58.563232
2019-04-21T04:05:54.835Z,58.666992
2019-04-21T04:06:07.683Z,58.868408
2019-04-21T04:06:19.002Z,58.868408
2019-04-21T04:06:42.407Z,58.563232
2019-04-21T04:07:20.778Z,57.434082
2019-04-21T04:07:57.122Z,57.4646
2019-04-21T04:08:20.258Z,57.4646
2019-04-21T04:08:57.321Z,57.769775
2019-04-21T04:09:18.115Z,57.666016
2019-04-21T04:09:36.619Z,58.074951
2019-04-21T04:09:51.652Z,58.074951
2019-04-21T04:10:11.499Z,58.074951
2019-04-21T04:10:31.086Z,57.873535
2019-04-21T04:10:49.830Z,57.562256
2019-04-21T04:11:11.227Z,57.562256
2019-04-21T04:11:43.089Z,58.38623
2019-04-21T04:12:18.614Z,58.282471
2019-04-21T04:12:40.411Z,58.178711
2019-04-21T04:13:13.370Z,58.587646
2019-04-21T04:13:26.241Z,58.587646
2019-04-21T04:14:03.275Z,58.074951
2019-04-21T04:14:49.898Z,58.587646
2019-04-21T04:15:20.232Z,58.898926
2019-04-21T04:15:38.023Z,59.204102